sensor_id;sensor_type;location;lat;lon;timestamp;P1;durP1;ratioP1;P2;durP2;ratioP2
55222;SDS011;41090;48.632;12.428;2023-06-14T00:01:48;6.90;;;3.87;;
55222;SDS011;41090;48.632;12.428;2023-06-14T00:04:14;5.47;;;3.83;;
55222;SDS011;41090;48.632;12.428;2023-06-14T00:06:42;4.90;;;3.90;;
55222;SDS011;41090;48.632;12.428;2023-06-14T00:09:10;4.50;;;4.10;;
55222;SDS011;41090;48.632;12.428;2023-06-14T00:11:35;4.20;;;3.53;;
55222;SDS011;41090;48.632;12.428;2023-06-14T00:14:00;4.27;;;3.87;;
55222;SDS011;41090;48.632;12.428;2023-06-14T00:16:26;4.30;;;3.90;;
55222;SDS011;41090;48.632;12.428;2023-06-14T00:18:51;4.10;;;3.63;;
55222;SDS011;41090;48.632;12.428;2023-06-14T00:21:19;4.43;;;4.00;;
55222;SDS011;41090;48.632;12.428;2023-06-14T00:23:44;5.33;;;3.70;;
55222;SDS011;41090;48.632;12.428;2023-06-14T00:26:10;5.20;;;4.13;;
55222;SDS011;41090;48.632;12.428;2023-06-14T00:28:35;4.27;;;3.87;;
55222;SDS011;41090;48.632;12.428;2023-06-14T00:31:00;4.93;;;3.77;;
55222;SDS011;41090;48.632;12.428;2023-06-14T00:33:26;4.27;;;3.87;;
55222;SDS011;41090;48.632;12.428;2023-06-14T00:35:51;4.20;;;3.80;;
55222;SDS011;41090;48.632;12.428;2023-06-14T00:38:18;4.10;;;3.70;;
55222;SDS011;41090;48.632;12.428;2023-06-14T00:40:44;5.37;;;3.30;;
55222;SDS011;41090;48.632;12.428;2023-06-14T00:43:09;4.40;;;3.80;;
55222;SDS011;41090;48.632;12.428;2023-06-14T00:45:34;3.80;;;3.50;;
55222;SDS011;41090;48.632;12.428;2023-06-14T00:48:01;3.67;;;3.37;;
55222;SDS011;41090;48.632;12.428;2023-06-14T00:50:27;4.07;;;3.67;;
55222;SDS011;41090;48.632;12.428;2023-06-14T00:52:53;5.33;;;4.23;;
55222;SDS011;41090;48.632;12.428;2023-06-14T00:55:18;3.80;;;3.50;;
55222;SDS011;41090;48.632;12.428;2023-06-14T00:57:44;4.20;;;3.80;;
55222;SDS011;41090;48.632;12.428;2023-06-14T01:00:10;4.93;;;3.60;;
55222;SDS011;41090;48.632;12.428;2023-06-14T01:02:38;4.30;;;3.60;;
55222;SDS011;41090;48.632;12.428;2023-06-14T01:05:04;4.70;;;4.03;;
55222;SDS011;41090;48.632;12.428;2023-06-14T01:15:25;4.73;;;4.13;;
55222;SDS011;41090;48.632;12.428;2023-06-14T01:17:51;5.00;;;3.87;;
55222;SDS011;41090;48.632;12.428;2023-06-14T01:20:17;5.03;;;4.53;;
55222;SDS011;41090;48.632;12.428;2023-06-14T01:23:03;5.57;;;4.73;;
55222;SDS011;41090;48.632;12.428;2023-06-14T01:25:28;4.73;;;4.17;;
55222;SDS011;41090;48.632;12.428;2023-06-14T01:27:57;4.40;;;4.00;;
55222;SDS011;41090;48.632;12.428;2023-06-14T01:30:22;4.87;;;3.93;;
55222;SDS011;41090;48.632;12.428;2023-06-14T01:32:48;4.40;;;4.00;;
55222;SDS011;41090;48.632;12.428;2023-06-14T01:35:15;5.93;;;4.00;;
55222;SDS011;41090;48.632;12.428;2023-06-14T01:37:48;6.73;;;3.93;;
55222;SDS011;41090;48.632;12.428;2023-06-14T01:40:14;3.90;;;3.57;;
55222;SDS011;41090;48.632;12.428;2023-06-14T01:42:39;4.67;;;4.00;;
55222;SDS011;41090;48.632;12.428;2023-06-14T01:45:05;4.87;;;4.00;;
55222;SDS011;41090;48.632;12.428;2023-06-14T01:47:31;5.77;;;4.20;;
55222;SDS011;41090;48.632;12.428;2023-06-14T01:49:57;4.83;;;4.23;;
55222;SDS011;41090;48.632;12.428;2023-06-14T01:52:23;7.10;;;4.27;;
55222;SDS011;41090;48.632;12.428;2023-06-14T01:54:49;4.73;;;3.97;;
55222;SDS011;41090;48.632;12.428;2023-06-14T01:57:14;4.67;;;4.20;;
55222;SDS011;41090;48.632;12.428;2023-06-14T01:59:40;6.20;;;4.53;;
55222;SDS011;41090;48.632;12.428;2023-06-14T02:02:05;4.80;;;4.30;;
55222;SDS011;41090;48.632;12.428;2023-06-14T02:04:30;6.23;;;4.60;;
55222;SDS011;41090;48.632;12.428;2023-06-14T02:06:55;5.63;;;4.50;;
55222;SDS011;41090;48.632;12.428;2023-06-14T02:09:21;5.27;;;4.77;;
55222;SDS011;41090;48.632;12.428;2023-06-14T02:11:46;5.00;;;4.50;;
55222;SDS011;41090;48.632;12.428;2023-06-14T02:14:11;4.37;;;3.97;;
55222;SDS011;41090;48.632;12.428;2023-06-14T02:16:37;4.60;;;4.20;;
55222;SDS011;41090;48.632;12.428;2023-06-14T02:19:04;4.63;;;4.20;;
55222;SDS011;41090;48.632;12.428;2023-06-14T02:21:29;5.07;;;4.27;;
55222;SDS011;41090;48.632;12.428;2023-06-14T02:24:01;5.33;;;4.23;;
55222;SDS011;41090;48.632;12.428;2023-06-14T02:26:26;5.33;;;4.80;;
55222;SDS011;41090;48.632;12.428;2023-06-14T02:28:53;4.20;;;3.90;;
55222;SDS011;41090;48.632;12.428;2023-06-14T02:31:19;4.70;;;4.30;;
55222;SDS011;41090;48.632;12.428;2023-06-14T02:33:45;5.97;;;4.20;;
55222;SDS011;41090;48.632;12.428;2023-06-14T02:36:10;4.40;;;4.00;;
55222;SDS011;41090;48.632;12.428;2023-06-14T02:38:35;4.47;;;4.07;;
55222;SDS011;41090;48.632;12.428;2023-06-14T02:41:01;5.00;;;4.47;;
55222;SDS011;41090;48.632;12.428;2023-06-14T02:43:28;4.80;;;4.37;;
55222;SDS011;41090;48.632;12.428;2023-06-14T02:45:53;4.50;;;4.10;;
55222;SDS011;41090;48.632;12.428;2023-06-14T02:48:19;5.07;;;4.67;;
55222;SDS011;41090;48.632;12.428;2023-06-14T02:50:44;5.37;;;4.60;;
55222;SDS011;41090;48.632;12.428;2023-06-14T02:53:10;6.33;;;4.43;;
55222;SDS011;41090;48.632;12.428;2023-06-14T02:55:37;5.77;;;4.90;;
55222;SDS011;41090;48.632;12.428;2023-06-14T02:58:04;5.87;;;4.60;;
55222;SDS011;41090;48.632;12.428;2023-06-14T03:00:30;5.20;;;4.20;;
55222;SDS011;41090;48.632;12.428;2023-06-14T03:02:55;6.93;;;4.53;;
55222;SDS011;41090;48.632;12.428;2023-06-14T03:05:21;4.77;;;4.27;;
55222;SDS011;41090;48.632;12.428;2023-06-14T03:07:47;4.67;;;4.17;;
55222;SDS011;41090;48.632;12.428;2023-06-14T03:10:12;4.60;;;4.20;;
55222;SDS011;41090;48.632;12.428;2023-06-14T03:12:38;4.93;;;4.40;;
55222;SDS011;41090;48.632;12.428;2023-06-14T03:15:03;6.17;;;4.53;;
55222;SDS011;41090;48.632;12.428;2023-06-14T03:17:28;4.90;;;4.50;;
55222;SDS011;41090;48.632;12.428;2023-06-14T03:22:28;6.70;;;5.27;;
55222;SDS011;41090;48.632;12.428;2023-06-14T03:24:53;5.13;;;4.47;;
55222;SDS011;41090;48.632;12.428;2023-06-14T03:27:19;5.10;;;4.53;;
55222;SDS011;41090;48.632;12.428;2023-06-14T03:29:44;5.80;;;4.60;;
55222;SDS011;41090;48.632;12.428;2023-06-14T03:34:40;6.10;;;4.33;;
55222;SDS011;41090;48.632;12.428;2023-06-14T03:37:06;4.67;;;4.27;;
55222;SDS011;41090;48.632;12.428;2023-06-14T03:39:31;5.83;;;4.80;;
55222;SDS011;41090;48.632;12.428;2023-06-14T03:41:56;5.00;;;4.43;;
55222;SDS011;41090;48.632;12.428;2023-06-14T03:44:21;8.40;;;4.90;;
55222;SDS011;41090;48.632;12.428;2023-06-14T03:46:47;5.83;;;5.00;;
55222;SDS011;41090;48.632;12.428;2023-06-14T03:49:19;6.00;;;4.80;;
55222;SDS011;41090;48.632;12.428;2023-06-14T03:51:45;4.47;;;4.07;;
55222;SDS011;41090;48.632;12.428;2023-06-14T03:54:16;5.33;;;4.80;;
55222;SDS011;41090;48.632;12.428;2023-06-14T03:56:41;4.93;;;4.47;;
55222;SDS011;41090;48.632;12.428;2023-06-14T03:59:06;6.87;;;4.40;;
55222;SDS011;41090;48.632;12.428;2023-06-14T04:01:31;5.70;;;5.20;;
55222;SDS011;41090;48.632;12.428;2023-06-14T04:03:58;5.10;;;4.70;;
55222;SDS011;41090;48.632;12.428;2023-06-14T04:06:25;4.87;;;4.37;;
55222;SDS011;41090;48.632;12.428;2023-06-14T04:08:57;6.20;;;4.97;;
55222;SDS011;41090;48.632;12.428;2023-06-14T04:11:22;6.03;;;5.00;;
55222;SDS011;41090;48.632;12.428;2023-06-14T04:13:47;6.13;;;4.80;;
55222;SDS011;41090;48.632;12.428;2023-06-14T04:16:13;5.80;;;4.80;;
55222;SDS011;41090;48.632;12.428;2023-06-14T04:18:38;4.93;;;4.50;;
55222;SDS011;41090;48.632;12.428;2023-06-14T04:21:03;5.40;;;4.90;;
55222;SDS011;41090;48.632;12.428;2023-06-14T04:23:29;6.13;;;4.90;;
55222;SDS011;41090;48.632;12.428;2023-06-14T04:25:55;5.73;;;5.13;;
55222;SDS011;41090;48.632;12.428;2023-06-14T04:28:26;5.43;;;4.87;;
55222;SDS011;41090;48.632;12.428;2023-06-14T04:30:53;4.90;;;4.50;;
55222;SDS011;41090;48.632;12.428;2023-06-14T04:33:18;5.20;;;4.70;;
55222;SDS011;41090;48.632;12.428;2023-06-14T04:35:44;5.53;;;4.57;;
55222;SDS011;41090;48.632;12.428;2023-06-14T04:38:12;5.67;;;4.93;;
55222;SDS011;41090;48.632;12.428;2023-06-14T04:40:37;5.20;;;4.57;;
55222;SDS011;41090;48.632;12.428;2023-06-14T04:43:08;6.03;;;4.90;;
55222;SDS011;41090;48.632;12.428;2023-06-14T04:45:37;5.70;;;5.10;;
55222;SDS011;41090;48.632;12.428;2023-06-14T04:48:05;5.67;;;5.00;;
55222;SDS011;41090;48.632;12.428;2023-06-14T04:50:31;5.27;;;4.43;;
55222;SDS011;41090;48.632;12.428;2023-06-14T04:52:58;4.80;;;4.40;;
55222;SDS011;41090;48.632;12.428;2023-06-14T04:55:24;5.40;;;4.70;;
55222;SDS011;41090;48.632;12.428;2023-06-14T04:57:51;6.10;;;5.00;;
55222;SDS011;41090;48.632;12.428;2023-06-14T05:00:18;7.77;;;5.40;;
55222;SDS011;41090;48.632;12.428;2023-06-14T05:02:43;8.03;;;5.93;;
55222;SDS011;41090;48.632;12.428;2023-06-14T05:05:10;7.73;;;6.67;;
55222;SDS011;41090;48.632;12.428;2023-06-14T05:07:36;6.83;;;5.70;;
55222;SDS011;41090;48.632;12.428;2023-06-14T05:10:01;6.87;;;5.77;;
55222;SDS011;41090;48.632;12.428;2023-06-14T05:12:26;7.60;;;6.20;;
55222;SDS011;41090;48.632;12.428;2023-06-14T05:14:52;7.67;;;6.30;;
55222;SDS011;41090;48.632;12.428;2023-06-14T05:17:17;9.37;;;6.17;;
55222;SDS011;41090;48.632;12.428;2023-06-14T05:19:43;6.70;;;5.30;;
55222;SDS011;41090;48.632;12.428;2023-06-14T05:22:08;7.33;;;5.57;;
55222;SDS011;41090;48.632;12.428;2023-06-14T05:24:33;7.00;;;5.43;;
55222;SDS011;41090;48.632;12.428;2023-06-14T05:26:58;5.33;;;4.83;;
55222;SDS011;41090;48.632;12.428;2023-06-14T05:29:27;5.90;;;5.30;;
55222;SDS011;41090;48.632;12.428;2023-06-14T05:31:52;8.30;;;5.97;;
55222;SDS011;41090;48.632;12.428;2023-06-14T05:34:18;7.33;;;5.80;;
55222;SDS011;41090;48.632;12.428;2023-06-14T05:36:43;6.20;;;5.60;;
55222;SDS011;41090;48.632;12.428;2023-06-14T05:39:09;7.23;;;4.83;;
55222;SDS011;41090;48.632;12.428;2023-06-14T05:41:35;9.17;;;5.10;;
55222;SDS011;41090;48.632;12.428;2023-06-14T05:44:00;5.67;;;4.37;;
55222;SDS011;41090;48.632;12.428;2023-06-14T05:46:26;5.43;;;4.93;;
55222;SDS011;41090;48.632;12.428;2023-06-14T05:48:51;6.40;;;5.23;;
55222;SDS011;41090;48.632;12.428;2023-06-14T05:51:16;5.07;;;4.50;;
55222;SDS011;41090;48.632;12.428;2023-06-14T05:53:47;5.77;;;5.17;;
55222;SDS011;41090;48.632;12.428;2023-06-14T05:56:13;6.63;;;5.13;;
55222;SDS011;41090;48.632;12.428;2023-06-14T05:58:39;5.20;;;4.43;;
55222;SDS011;41090;48.632;12.428;2023-06-14T06:01:04;4.67;;;4.20;;
55222;SDS011;41090;48.632;12.428;2023-06-14T06:03:29;5.57;;;4.43;;
55222;SDS011;41090;48.632;12.428;2023-06-14T06:05:55;5.70;;;4.77;;
55222;SDS011;41090;48.632;12.428;2023-06-14T06:08:20;6.30;;;4.77;;
55222;SDS011;41090;48.632;12.428;2023-06-14T06:10:45;4.97;;;4.57;;
55222;SDS011;41090;48.632;12.428;2023-06-14T06:13:11;6.53;;;4.97;;
55222;SDS011;41090;48.632;12.428;2023-06-14T06:15:36;5.20;;;3.90;;
55222;SDS011;41090;48.632;12.428;2023-06-14T06:18:01;5.13;;;4.07;;
55222;SDS011;41090;48.632;12.428;2023-06-14T06:20:26;5.70;;;3.93;;
55222;SDS011;41090;48.632;12.428;2023-06-14T06:22:53;6.37;;;3.97;;
55222;SDS011;41090;48.632;12.428;2023-06-14T06:25:19;4.57;;;3.57;;
55222;SDS011;41090;48.632;12.428;2023-06-14T06:27:44;5.60;;;3.60;;
55222;SDS011;41090;48.632;12.428;2023-06-14T06:30:09;5.30;;;4.30;;
55222;SDS011;41090;48.632;12.428;2023-06-14T06:32:35;3.90;;;3.50;;
55222;SDS011;41090;48.632;12.428;2023-06-14T06:35:02;8.40;;;4.43;;
55222;SDS011;41090;48.632;12.428;2023-06-14T06:37:31;4.00;;;3.70;;
55222;SDS011;41090;48.632;12.428;2023-06-14T06:40:02;4.07;;;3.67;;
55222;SDS011;41090;48.632;12.428;2023-06-14T06:42:30;4.90;;;4.07;;
55222;SDS011;41090;48.632;12.428;2023-06-14T06:44:55;5.57;;;3.87;;
55222;SDS011;41090;48.632;12.428;2023-06-14T06:47:22;6.07;;;4.07;;
55222;SDS011;41090;48.632;12.428;2023-06-14T06:49:47;4.73;;;4.10;;
55222;SDS011;41090;48.632;12.428;2023-06-14T06:52:29;6.37;;;4.10;;
55222;SDS011;41090;48.632;12.428;2023-06-14T06:54:54;3.80;;;3.50;;
55222;SDS011;41090;48.632;12.428;2023-06-14T06:57:22;4.03;;;3.50;;
55222;SDS011;41090;48.632;12.428;2023-06-14T06:59:48;4.33;;;3.73;;
55222;SDS011;41090;48.632;12.428;2023-06-14T07:02:13;4.47;;;4.03;;
55222;SDS011;41090;48.632;12.428;2023-06-14T07:04:38;4.40;;;3.93;;
55222;SDS011;41090;48.632;12.428;2023-06-14T07:07:04;4.10;;;3.53;;
55222;SDS011;41090;48.632;12.428;2023-06-14T07:09:29;4.23;;;3.83;;
55222;SDS011;41090;48.632;12.428;2023-06-14T07:11:54;6.37;;;3.53;;
55222;SDS011;41090;48.632;12.428;2023-06-14T07:14:19;4.87;;;3.80;;
55222;SDS011;41090;48.632;12.428;2023-06-14T07:16:48;4.47;;;3.73;;
55222;SDS011;41090;48.632;12.428;2023-06-14T07:19:14;4.37;;;3.70;;
55222;SDS011;41090;48.632;12.428;2023-06-14T07:21:39;4.60;;;4.20;;
55222;SDS011;41090;48.632;12.428;2023-06-14T07:24:05;4.13;;;3.67;;
55222;SDS011;41090;48.632;12.428;2023-06-14T07:26:31;6.00;;;4.13;;
55222;SDS011;41090;48.632;12.428;2023-06-14T07:28:56;6.40;;;3.80;;
55222;SDS011;41090;48.632;12.428;2023-06-14T07:31:22;5.33;;;3.90;;
55222;SDS011;41090;48.632;12.428;2023-06-14T07:33:47;5.67;;;3.90;;
55222;SDS011;41090;48.632;12.428;2023-06-14T07:36:12;5.00;;;3.80;;
55222;SDS011;41090;48.632;12.428;2023-06-14T07:38:38;6.83;;;3.73;;
55222;SDS011;41090;48.632;12.428;2023-06-14T07:41:05;6.47;;;4.00;;
55222;SDS011;41090;48.632;12.428;2023-06-14T07:43:30;4.27;;;3.80;;
55222;SDS011;41090;48.632;12.428;2023-06-14T07:45:55;4.57;;;4.17;;
55222;SDS011;41090;48.632;12.428;2023-06-14T07:48:22;5.53;;;3.60;;
55222;SDS011;41090;48.632;12.428;2023-06-14T07:50:47;4.30;;;3.90;;
55222;SDS011;41090;48.632;12.428;2023-06-14T07:53:12;4.40;;;3.60;;
55222;SDS011;41090;48.632;12.428;2023-06-14T07:55:37;4.47;;;3.78;;
55222;SDS011;41090;48.632;12.428;2023-06-14T07:58:03;6.55;;;3.60;;
55222;SDS011;41090;48.632;12.428;2023-06-14T08:00:29;4.43;;;3.50;;
55222;SDS011;41090;48.632;12.428;2023-06-14T08:02:54;3.83;;;3.45;;
55222;SDS011;41090;48.632;12.428;2023-06-14T08:05:23;4.63;;;3.25;;
55222;SDS011;41090;48.632;12.428;2023-06-14T08:07:49;3.47;;;3.08;;
55222;SDS011;41090;48.632;12.428;2023-06-14T08:10:14;5.45;;;3.15;;
55222;SDS011;41090;48.632;12.428;2023-06-14T08:12:39;4.22;;;3.05;;
55222;SDS011;41090;48.632;12.428;2023-06-14T08:15:05;5.40;;;3.17;;
55222;SDS011;41090;48.632;12.428;2023-06-14T08:17:30;5.60;;;3.20;;
55222;SDS011;41090;48.632;12.428;2023-06-14T08:19:56;3.42;;;3.13;;
55222;SDS011;41090;48.632;12.428;2023-06-14T08:22:22;4.15;;;2.95;;
55222;SDS011;41090;48.632;12.428;2023-06-14T08:24:49;5.88;;;3.00;;
55222;SDS011;41090;48.632;12.428;2023-06-14T08:27:14;3.83;;;2.90;;
55222;SDS011;41090;48.632;12.428;2023-06-14T08:29:40;5.28;;;3.00;;
55222;SDS011;41090;48.632;12.428;2023-06-14T08:32:06;3.67;;;2.97;;
55222;SDS011;41090;48.632;12.428;2023-06-14T08:34:31;5.85;;;2.80;;
55222;SDS011;41090;48.632;12.428;2023-06-14T08:36:57;3.90;;;2.67;;
55222;SDS011;41090;48.632;12.428;2023-06-14T08:39:22;3.55;;;3.03;;
55222;SDS011;41090;48.632;12.428;2023-06-14T08:41:48;4.03;;;3.15;;
55222;SDS011;41090;48.632;12.428;2023-06-14T08:44:14;3.22;;;2.90;;
55222;SDS011;41090;48.632;12.428;2023-06-14T08:46:40;5.40;;;2.90;;
55222;SDS011;41090;48.632;12.428;2023-06-14T08:49:06;3.78;;;2.78;;
55222;SDS011;41090;48.632;12.428;2023-06-14T08:51:33;4.18;;;2.85;;
55222;SDS011;41090;48.632;12.428;2023-06-14T08:54:02;3.30;;;2.85;;
55222;SDS011;41090;48.632;12.428;2023-06-14T08:56:29;4.15;;;3.20;;
55222;SDS011;41090;48.632;12.428;2023-06-14T08:58:55;3.65;;;2.97;;
55222;SDS011;41090;48.632;12.428;2023-06-14T09:01:21;3.88;;;3.03;;
55222;SDS011;41090;48.632;12.428;2023-06-14T09:03:46;3.80;;;3.10;;
55222;SDS011;41090;48.632;12.428;2023-06-14T09:06:13;8.85;;;3.45;;
55222;SDS011;41090;48.632;12.428;2023-06-14T09:08:44;3.78;;;3.47;;
55222;SDS011;41090;48.632;12.428;2023-06-14T09:11:11;3.58;;;3.17;;
55222;SDS011;41090;48.632;12.428;2023-06-14T09:13:37;3.30;;;3.00;;
55222;SDS011;41090;48.632;12.428;2023-06-14T09:16:03;3.88;;;3.05;;
55222;SDS011;41090;48.632;12.428;2023-06-14T09:19:02;4.13;;;2.97;;
55222;SDS011;41090;48.632;12.428;2023-06-14T09:21:20;3.67;;;3.38;;
55222;SDS011;41090;48.632;12.428;2023-06-14T09:23:47;5.00;;;3.38;;
55222;SDS011;41090;48.632;12.428;2023-06-14T09:28:44;3.35;;;3.05;;
55222;SDS011;41090;48.632;12.428;2023-06-14T09:31:13;6.03;;;3.25;;
55222;SDS011;41090;48.632;12.428;2023-06-14T09:33:38;3.63;;;3.22;;
55222;SDS011;41090;48.632;12.428;2023-06-14T09:36:09;4.35;;;3.05;;
55222;SDS011;41090;48.632;12.428;2023-06-14T09:38:34;3.65;;;3.17;;
55222;SDS011;41090;48.632;12.428;2023-06-14T09:41:00;4.60;;;3.33;;
55222;SDS011;41090;48.632;12.428;2023-06-14T09:43:28;4.88;;;3.03;;
55222;SDS011;41090;48.632;12.428;2023-06-14T09:45:53;4.00;;;2.77;;
55222;SDS011;41090;48.632;12.428;2023-06-14T09:48:19;5.30;;;3.00;;
55222;SDS011;41090;48.632;12.428;2023-06-14T09:50:45;3.78;;;3.00;;
55222;SDS011;41090;48.632;12.428;2023-06-14T09:53:10;4.00;;;3.33;;
55222;SDS011;41090;48.632;12.428;2023-06-14T09:55:43;5.18;;;3.10;;
55222;SDS011;41090;48.632;12.428;2023-06-14T09:58:09;4.65;;;3.25;;
55222;SDS011;41090;48.632;12.428;2023-06-14T10:00:36;4.03;;;3.20;;
55222;SDS011;41090;48.632;12.428;2023-06-14T10:03:14;3.45;;;3.05;;
55222;SDS011;41090;48.632;12.428;2023-06-14T10:05:43;3.30;;;3.00;;
55222;SDS011;41090;48.632;12.428;2023-06-14T10:08:09;3.78;;;3.10;;
55222;SDS011;41090;48.632;12.428;2023-06-14T10:10:35;3.97;;;3.10;;
55222;SDS011;41090;48.632;12.428;2023-06-14T10:13:01;3.38;;;2.80;;
55222;SDS011;41090;48.632;12.428;2023-06-14T10:17:57;4.60;;;3.17;;
55222;SDS011;41090;48.632;12.428;2023-06-14T10:20:30;3.75;;;3.20;;
55222;SDS011;41090;48.632;12.428;2023-06-14T10:23:10;3.03;;;2.83;;
55222;SDS011;41090;48.632;12.428;2023-06-14T10:25:38;3.53;;;3.05;;
55222;SDS011;41090;48.632;12.428;2023-06-14T10:28:14;5.85;;;3.10;;
55222;SDS011;41090;48.632;12.428;2023-06-14T10:30:40;3.83;;;3.20;;
55222;SDS011;41090;48.632;12.428;2023-06-14T10:33:25;4.05;;;2.95;;
55222;SDS011;41090;48.632;12.428;2023-06-14T10:36:06;4.25;;;3.22;;
55222;SDS011;41090;48.632;12.428;2023-06-14T10:38:31;3.60;;;3.15;;
55222;SDS011;41090;48.632;12.428;2023-06-14T10:40:58;4.70;;;3.03;;
55222;SDS011;41090;48.632;12.428;2023-06-14T10:43:23;3.25;;;2.95;;
55222;SDS011;41090;48.632;12.428;2023-06-14T10:48:33;3.75;;;3.17;;
55222;SDS011;41090;48.632;12.428;2023-06-14T10:51:01;5.00;;;3.35;;
55222;SDS011;41090;48.632;12.428;2023-06-14T10:53:27;5.13;;;3.50;;
55222;SDS011;41090;48.632;12.428;2023-06-14T10:55:52;3.83;;;3.20;;
55222;SDS011;41090;48.632;12.428;2023-06-14T10:58:17;4.55;;;3.00;;
55222;SDS011;41090;48.632;12.428;2023-06-14T11:00:43;5.60;;;3.27;;
55222;SDS011;41090;48.632;12.428;2023-06-14T11:05:54;4.75;;;3.00;;
55222;SDS011;41090;48.632;12.428;2023-06-14T11:11:07;4.25;;;2.88;;
55222;SDS011;41090;48.632;12.428;2023-06-14T11:13:32;4.55;;;3.22;;
55222;SDS011;41090;48.632;12.428;2023-06-14T11:15:58;5.03;;;3.22;;
55222;SDS011;41090;48.632;12.428;2023-06-14T11:18:23;4.38;;;3.17;;
55222;SDS011;41090;48.632;12.428;2023-06-14T11:20:55;5.57;;;3.15;;
55222;SDS011;41090;48.632;12.428;2023-06-14T11:23:23;5.97;;;3.45;;
55222;SDS011;41090;48.632;12.428;2023-06-14T11:25:52;4.60;;;3.13;;
55222;SDS011;41090;48.632;12.428;2023-06-14T11:28:18;4.65;;;3.30;;
55222;SDS011;41090;48.632;12.428;2023-06-14T11:30:48;5.68;;;3.50;;
55222;SDS011;41090;48.632;12.428;2023-06-14T11:33:16;4.97;;;3.45;;
55222;SDS011;41090;48.632;12.428;2023-06-14T11:35:42;4.43;;;2.88;;
55222;SDS011;41090;48.632;12.428;2023-06-14T11:38:07;3.67;;;3.20;;
55222;SDS011;41090;48.632;12.428;2023-06-14T11:40:37;6.78;;;2.88;;
55222;SDS011;41090;48.632;12.428;2023-06-14T11:43:02;10.27;;;3.33;;
55222;SDS011;41090;48.632;12.428;2023-06-14T11:45:28;4.63;;;3.28;;
55222;SDS011;41090;48.632;12.428;2023-06-14T11:47:54;4.03;;;3.60;;
55222;SDS011;41090;48.632;12.428;2023-06-14T11:50:20;5.38;;;3.20;;
55222;SDS011;41090;48.632;12.428;2023-06-14T11:52:51;4.15;;;3.17;;
55222;SDS011;41090;48.632;12.428;2023-06-14T11:55:17;4.50;;;3.38;;
55222;SDS011;41090;48.632;12.428;2023-06-14T11:57:42;4.07;;;3.53;;
55222;SDS011;41090;48.632;12.428;2023-06-14T12:00:08;8.32;;;3.30;;
55222;SDS011;41090;48.632;12.428;2023-06-14T12:02:37;4.10;;;3.30;;
55222;SDS011;41090;48.632;12.428;2023-06-14T12:05:05;4.78;;;3.30;;
55222;SDS011;41090;48.632;12.428;2023-06-14T12:07:32;4.03;;;3.53;;
55222;SDS011;41090;48.632;12.428;2023-06-14T12:12:26;5.13;;;3.25;;
55222;SDS011;41090;48.632;12.428;2023-06-14T12:14:52;4.50;;;3.15;;
55222;SDS011;41090;48.632;12.428;2023-06-14T12:17:18;5.05;;;3.35;;
55222;SDS011;41090;48.632;12.428;2023-06-14T12:19:44;3.47;;;3.17;;
55222;SDS011;41090;48.632;12.428;2023-06-14T12:22:10;4.82;;;3.15;;
55222;SDS011;41090;48.632;12.428;2023-06-14T12:24:35;4.75;;;3.20;;
55222;SDS011;41090;48.632;12.428;2023-06-14T12:27:00;4.93;;;3.15;;
55222;SDS011;41090;48.632;12.428;2023-06-14T12:29:28;4.35;;;3.10;;
55222;SDS011;41090;48.632;12.428;2023-06-14T12:32:09;7.10;;;3.20;;
55222;SDS011;41090;48.632;12.428;2023-06-14T12:37:04;3.50;;;3.20;;
55222;SDS011;41090;48.632;12.428;2023-06-14T12:39:31;3.40;;;3.10;;
55222;SDS011;41090;48.632;12.428;2023-06-14T12:41:57;3.25;;;2.95;;
55222;SDS011;41090;48.632;12.428;2023-06-14T12:44:22;5.18;;;3.20;;
55222;SDS011;41090;48.632;12.428;2023-06-14T12:46:48;6.10;;;3.53;;
55222;SDS011;41090;48.632;12.428;2023-06-14T12:49:13;6.13;;;3.30;;
55222;SDS011;41090;48.632;12.428;2023-06-14T12:51:39;4.43;;;3.30;;
55222;SDS011;41090;48.632;12.428;2023-06-14T12:54:04;3.05;;;2.75;;
55222;SDS011;41090;48.632;12.428;2023-06-14T12:56:30;4.50;;;3.25;;
55222;SDS011;41090;48.632;12.428;2023-06-14T12:58:56;5.50;;;3.17;;
55222;SDS011;41090;48.632;12.428;2023-06-14T13:01:23;5.65;;;3.33;;
55222;SDS011;41090;48.632;12.428;2023-06-14T13:03:49;5.93;;;3.20;;
55222;SDS011;41090;48.632;12.428;2023-06-14T13:06:16;3.33;;;3.03;;
55222;SDS011;41090;48.632;12.428;2023-06-14T13:08:41;3.40;;;2.97;;
55222;SDS011;41090;48.632;12.428;2023-06-14T13:11:07;2.95;;;2.70;;
55222;SDS011;41090;48.632;12.428;2023-06-14T13:13:32;3.22;;;2.92;;
55222;SDS011;41090;48.632;12.428;2023-06-14T13:15:57;4.60;;;2.83;;
55222;SDS011;41090;48.632;12.428;2023-06-14T13:18:22;3.90;;;3.20;;
55222;SDS011;41090;48.632;12.428;2023-06-14T13:20:48;5.22;;;3.13;;
55222;SDS011;41090;48.632;12.428;2023-06-14T13:23:13;3.83;;;3.25;;
55222;SDS011;41090;48.632;12.428;2023-06-14T13:25:38;4.25;;;3.17;;
55222;SDS011;41090;48.632;12.428;2023-06-14T13:28:05;3.90;;;3.10;;
55222;SDS011;41090;48.632;12.428;2023-06-14T13:30:32;4.78;;;3.28;;
55222;SDS011;41090;48.632;12.428;2023-06-14T13:33:00;4.80;;;3.40;;
55222;SDS011;41090;48.632;12.428;2023-06-14T13:35:26;3.22;;;2.95;;
55222;SDS011;41090;48.632;12.428;2023-06-14T13:37:51;3.67;;;2.90;;
55222;SDS011;41090;48.632;12.428;2023-06-14T13:40:17;5.35;;;3.20;;
55222;SDS011;41090;48.632;12.428;2023-06-14T13:42:42;5.90;;;3.10;;
55222;SDS011;41090;48.632;12.428;2023-06-14T13:45:07;3.50;;;3.20;;
55222;SDS011;41090;48.632;12.428;2023-06-14T13:47:33;5.15;;;2.97;;
55222;SDS011;41090;48.632;12.428;2023-06-14T13:49:58;5.13;;;3.30;;
55222;SDS011;41090;48.632;12.428;2023-06-14T13:52:24;5.72;;;2.88;;
55222;SDS011;41090;48.632;12.428;2023-06-14T13:54:49;3.90;;;3.08;;
55222;SDS011;41090;48.632;12.428;2023-06-14T13:57:14;4.50;;;2.88;;
55222;SDS011;41090;48.632;12.428;2023-06-14T13:59:40;4.05;;;2.80;;
55222;SDS011;41090;48.632;12.428;2023-06-14T14:02:05;3.25;;;2.90;;
55222;SDS011;41090;48.632;12.428;2023-06-14T14:04:31;3.00;;;2.80;;
55222;SDS011;41090;48.632;12.428;2023-06-14T14:06:56;3.55;;;3.17;;
55222;SDS011;41090;48.632;12.428;2023-06-14T14:09:22;3.30;;;3.00;;
55222;SDS011;41090;48.632;12.428;2023-06-14T14:11:47;3.88;;;2.83;;
55222;SDS011;41090;48.632;12.428;2023-06-14T14:14:13;4.38;;;2.92;;
55222;SDS011;41090;48.632;12.428;2023-06-14T14:16:39;4.10;;;3.10;;
55222;SDS011;41090;48.632;12.428;2023-06-14T14:19:04;3.58;;;3.05;;
55222;SDS011;41090;48.632;12.428;2023-06-14T14:21:30;3.85;;;3.03;;
55222;SDS011;41090;48.632;12.428;2023-06-14T14:23:56;5.03;;;3.10;;
55222;SDS011;41090;48.632;12.428;2023-06-14T14:26:27;4.28;;;2.95;;
55222;SDS011;41090;48.632;12.428;2023-06-14T14:28:53;3.58;;;2.92;;
55222;SDS011;41090;48.632;12.428;2023-06-14T14:31:18;3.00;;;2.80;;
55222;SDS011;41090;48.632;12.428;2023-06-14T14:33:44;4.63;;;3.30;;
55222;SDS011;41090;48.632;12.428;2023-06-14T14:36:15;4.13;;;3.20;;
55222;SDS011;41090;48.632;12.428;2023-06-14T14:38:40;3.42;;;3.13;;
55222;SDS011;41090;48.632;12.428;2023-06-14T14:41:06;3.90;;;3.20;;
55222;SDS011;41090;48.632;12.428;2023-06-14T14:43:31;4.07;;;3.30;;
55222;SDS011;41090;48.632;12.428;2023-06-14T14:45:57;3.97;;;2.92;;
55222;SDS011;41090;48.632;12.428;2023-06-14T14:48:22;3.42;;;3.13;;
55222;SDS011;41090;48.632;12.428;2023-06-14T14:50:47;7.28;;;3.50;;
55222;SDS011;41090;48.632;12.428;2023-06-14T14:53:13;5.25;;;3.38;;
55222;SDS011;41090;48.632;12.428;2023-06-14T14:55:40;5.18;;;3.25;;
55222;SDS011;41090;48.632;12.428;2023-06-14T14:58:06;3.97;;;3.10;;
55222;SDS011;41090;48.632;12.428;2023-06-14T15:00:34;3.83;;;3.22;;